createdAt,value
2022-11-24T00:00:49.487Z,37.85
2022-11-24T00:03:16.868Z,38.50
2022-11-24T00:05:44.318Z,29.58
2022-11-24T00:08:11.481Z,30.02
2022-11-24T00:10:38.636Z,38.92
2022-11-24T00:13:05.880Z,30.40
2022-11-24T00:15:33.032Z,29.42
2022-11-24T00:18:00.181Z,30.85
2022-11-24T00:20:27.347Z,26.85
2022-11-24T00:22:54.579Z,35.22
2022-11-24T00:25:21.724Z,35.13
2022-11-24T00:27:48.938Z,34.53
2022-11-24T00:30:16.255Z,32.30
2022-11-24T00:32:43.402Z,31.25
2022-11-24T00:35:10.615Z,36.38
2022-11-24T00:37:37.761Z,31.25
2022-11-24T00:40:05.167Z,31.83
2022-11-24T00:42:32.376Z,28.35
2022-11-24T00:44:59.523Z,33.55
2022-11-24T00:47:28.753Z,29.83
2022-11-24T00:49:55.926Z,30.50
2022-11-24T00:52:23.074Z,37.70
2022-11-24T00:54:50.226Z,30.05
2022-11-24T00:57:17.445Z,28.30
2022-11-24T00:59:44.598Z,29.67
2022-11-24T01:02:11.888Z,32.90
2022-11-24T01:04:39.249Z,26.65
2022-11-24T01:07:06.564Z,27.90
2022-11-24T01:09:33.879Z,28.63
2022-11-24T01:12:04.324Z,27.88
2022-11-24T01:14:33.102Z,31.30
2022-11-24T01:17:00.638Z,30.80
2022-11-24T01:19:27.814Z,32.80
2022-11-24T01:21:54.979Z,29.10
2022-11-24T01:24:22.214Z,27.55
2022-11-24T01:26:49.424Z,35.72
2022-11-24T01:29:16.648Z,34.75
2022-11-24T01:31:43.829Z,30.50
2022-11-24T01:34:11.104Z,33.85
2022-11-24T01:36:38.301Z,31.67
2022-11-24T01:39:05.602Z,38.05
2022-11-24T01:41:34.450Z,32.55
2022-11-24T01:44:01.635Z,31.40
2022-11-24T01:46:29.209Z,32.08
2022-11-24T01:49:05.569Z,26.15
2022-11-24T01:51:35.270Z,30.58
2022-11-24T01:54:16.896Z,30.52
2022-11-24T01:56:46.459Z,27.63
2022-11-24T01:59:15.227Z,30.73
2022-11-24T02:01:43.186Z,28.73
2022-11-24T02:04:13.586Z,33.45
2022-11-24T02:06:42.715Z,30.65
2022-11-24T02:09:18.864Z,29.48
2022-11-24T02:11:47.128Z,24.30
2022-11-24T02:14:15.574Z,33.78
2022-11-24T02:16:44.363Z,24.98
2022-11-24T02:19:19.016Z,37.10
2022-11-24T02:21:46.343Z,33.65
2022-11-24T02:24:16.484Z,26.63
2022-11-24T02:26:47.869Z,32.78
2022-11-24T02:29:15.717Z,34.00
2022-11-24T02:31:45.202Z,24.73
2022-11-24T02:34:12.470Z,24.83
2022-11-24T02:36:39.635Z,24.30
2022-11-24T02:39:10.651Z,32.90
2022-11-24T02:41:38.353Z,22.25
2022-11-24T02:44:05.687Z,29.13
2022-11-24T02:46:32.949Z,29.42
2022-11-24T02:49:00.143Z,33.85
2022-11-24T02:51:28.043Z,34.58
2022-11-24T02:53:55.168Z,27.98
2022-11-24T02:56:22.383Z,31.50
2022-11-24T02:58:49.535Z,35.83
2022-11-24T03:01:16.794Z,29.60
2022-11-24T03:03:44.056Z,21.92
2022-11-24T03:06:11.212Z,36.35
2022-11-24T03:08:38.391Z,29.65
2022-11-24T03:11:05.826Z,34.08
2022-11-24T03:13:32.988Z,37.58
2022-11-24T03:16:00.322Z,27.83
2022-11-24T03:18:27.548Z,25.73
2022-11-24T03:20:59.489Z,32.38
2022-11-24T03:23:27.118Z,31.67
2022-11-24T03:25:55.000Z,29.70
2022-11-24T03:28:22.171Z,24.27
2022-11-24T03:30:49.859Z,25.88
2022-11-24T03:33:17.073Z,29.02
2022-11-24T03:35:44.259Z,31.48
2022-11-24T03:38:11.382Z,40.35
2022-11-24T03:40:38.578Z,25.23
2022-11-24T03:43:05.720Z,22.70
2022-11-24T03:45:48.334Z,28.80
2022-11-24T03:48:16.420Z,28.92
2022-11-24T03:50:43.752Z,27.52
2022-11-24T03:53:11.296Z,29.38
2022-11-24T03:55:38.490Z,33.75
2022-11-24T03:58:05.643Z,31.17
2022-11-24T04:00:32.799Z,28.58
2022-11-24T04:03:00.043Z,23.98
2022-11-24T04:05:27.295Z,27.45
2022-11-24T04:07:57.704Z,24.70
2022-11-24T04:10:25.944Z,30.17
2022-11-24T04:12:55.939Z,25.95
2022-11-24T04:15:23.088Z,34.97
2022-11-24T04:17:50.727Z,23.42
2022-11-24T04:20:18.136Z,29.95
2022-11-24T04:22:45.323Z,24.73
2022-11-24T04:25:12.537Z,26.95
2022-11-24T04:27:39.976Z,29.13
2022-11-24T04:30:07.637Z,38.35
2022-11-24T04:32:34.799Z,30.25
2022-11-24T04:35:01.991Z,35.40
2022-11-24T04:37:29.241Z,28.70
2022-11-24T04:39:56.450Z,24.35
2022-11-24T04:42:23.666Z,23.83
2022-11-24T04:44:50.824Z,27.95
2022-11-24T04:47:19.188Z,32.70
2022-11-24T04:49:47.504Z,25.33
2022-11-24T04:52:14.688Z,30.98
2022-11-24T04:54:41.930Z,24.95
2022-11-24T04:57:12.370Z,25.73
2022-11-24T04:59:39.550Z,31.35
2022-11-24T05:02:06.775Z,34.45
2022-11-24T05:04:34.274Z,26.42
2022-11-24T05:07:01.646Z,23.20
2022-11-24T05:09:41.970Z,23.25
2022-11-24T05:12:15.316Z,26.60
2022-11-24T05:14:42.446Z,21.05
2022-11-24T05:17:09.585Z,16.83
2022-11-24T05:19:36.732Z,27.30
2022-11-24T05:22:03.970Z,19.38
2022-11-24T05:24:31.420Z,34.55
2022-11-24T05:26:58.772Z,29.52
2022-11-24T05:29:26.520Z,28.05
2022-11-24T05:31:53.671Z,24.00
2022-11-24T05:34:20.898Z,16.35
2022-11-24T05:36:54.338Z,26.98
2022-11-24T05:39:21.834Z,19.63
2022-11-24T05:41:48.999Z,27.05
2022-11-24T05:44:16.159Z,27.27
2022-11-24T05:46:43.390Z,29.38
2022-11-24T05:49:10.668Z,23.17
2022-11-24T05:51:37.797Z,20.35
2022-11-24T05:54:05.071Z,23.20
2022-11-24T05:56:32.419Z,23.13
2022-11-24T05:58:59.549Z,28.40
2022-11-24T06:01:26.769Z,24.90
2022-11-24T06:03:53.938Z,29.63
2022-11-24T06:06:21.126Z,23.67
2022-11-24T06:08:48.251Z,20.92
2022-11-24T06:11:18.142Z,31.48
2022-11-24T06:13:46.226Z,29.13
2022-11-24T06:16:13.634Z,18.13
2022-11-24T06:18:41.171Z,27.05
2022-11-24T06:21:11.119Z,28.67
2022-11-24T06:23:38.937Z,26.17
2022-11-24T06:26:06.217Z,34.00
2022-11-24T06:28:33.384Z,17.80
2022-11-24T06:31:01.494Z,21.65
2022-11-24T06:33:31.127Z,31.50
2022-11-24T06:36:06.047Z,21.70
2022-11-24T06:38:33.338Z,29.02
2022-11-24T06:41:01.323Z,16.77
2022-11-24T06:43:29.189Z,29.02
2022-11-24T06:45:56.912Z,25.27
2022-11-24T06:48:24.515Z,25.98
2022-11-24T06:50:51.675Z,23.05
2022-11-24T06:53:18.951Z,30.30
2022-11-24T06:55:46.759Z,30.95
2022-11-24T06:58:13.955Z,26.08
2022-11-24T07:00:41.296Z,28.35
2022-11-24T07:03:08.519Z,22.15
2022-11-24T07:05:35.713Z,32.78
2022-11-24T07:08:02.853Z,23.98
2022-11-24T07:10:30.062Z,28.42
2022-11-24T07:12:57.218Z,22.42
2022-11-24T07:15:24.348Z,32.47
2022-11-24T07:17:51.542Z,29.95
2022-11-24T07:20:18.680Z,25.23
2022-11-24T07:22:45.869Z,36.45
2022-11-24T07:25:14.530Z,18.67
2022-11-24T07:27:41.895Z,21.45
2022-11-24T07:30:09.280Z,26.02
2022-11-24T07:32:36.555Z,27.98
2022-11-24T07:35:03.804Z,24.38
2022-11-24T07:37:31.890Z,35.22
2022-11-24T07:39:59.337Z,17.83
2022-11-24T07:42:26.524Z,28.17
2022-11-24T07:44:53.737Z,26.02
2022-11-24T07:47:20.906Z,25.90
2022-11-24T07:49:48.105Z,22.77
2022-11-24T07:52:15.266Z,26.90
2022-11-24T07:54:42.412Z,29.48
2022-11-24T07:57:09.583Z,25.33
2022-11-24T07:59:36.729Z,26.77
2022-11-24T08:02:04.100Z,22.05
2022-11-24T08:04:31.434Z,28.10
2022-11-24T08:06:58.756Z,25.73
2022-11-24T08:09:25.919Z,31.35
2022-11-24T08:11:53.095Z,28.95
2022-11-24T08:14:20.980Z,29.02
2022-11-24T08:16:48.151Z,21.08
2022-11-24T08:19:15.320Z,17.58
2022-11-24T08:21:42.468Z,25.27
2022-11-24T08:24:09.842Z,28.38
2022-11-24T08:26:37.215Z,24.70
2022-11-24T08:29:04.398Z,26.58
2022-11-24T08:31:36.034Z,28.77
2022-11-24T08:34:04.123Z,23.83
2022-11-24T08:36:31.650Z,27.45
2022-11-24T08:38:59.723Z,34.22
2022-11-24T08:41:27.665Z,27.77
2022-11-24T08:43:55.396Z,20.85
2022-11-24T08:46:23.749Z,22.73
2022-11-24T08:48:52.250Z,23.55
2022-11-24T08:51:20.876Z,28.38
2022-11-24T08:53:48.043Z,35.13
2022-11-24T08:56:15.257Z,24.63
2022-11-24T08:58:42.925Z,22.23
2022-11-24T09:01:14.544Z,26.83
2022-11-24T09:03:48.498Z,24.92
2022-11-24T09:06:18.425Z,30.42
2022-11-24T09:08:45.555Z,26.70
2022-11-24T09:11:15.173Z,24.13
2022-11-24T09:13:42.720Z,22.30
2022-11-24T09:16:14.132Z,33.95
2022-11-24T09:18:44.861Z,25.55
2022-11-24T09:21:13.875Z,23.38
2022-11-24T09:23:41.656Z,18.70
2022-11-24T09:26:10.416Z,26.10
2022-11-24T09:28:37.997Z,24.40
2022-11-24T09:31:06.384Z,25.48
2022-11-24T09:33:34.012Z,22.30
2022-11-24T09:36:01.358Z,19.15
2022-11-24T09:38:28.863Z,17.92
2022-11-24T09:40:56.351Z,21.17
2022-11-24T09:43:38.828Z,27.73
2022-11-24T09:46:11.717Z,25.42
2022-11-24T09:48:41.638Z,16.90
2022-11-24T09:51:11.991Z,12.93
2022-11-24T09:53:42.060Z,19.63
2022-11-24T09:56:15.362Z,16.83
2022-11-24T09:58:48.576Z,22.35
2022-11-24T10:01:25.225Z,22.88
2022-11-24T10:03:53.361Z,20.00
2022-11-24T10:06:20.507Z,17.48
2022-11-24T10:09:10.610Z,16.52
2022-11-24T10:11:50.747Z,22.27
2022-11-24T10:14:34.236Z,12.88
2022-11-24T10:17:10.436Z,15.50
2022-11-24T10:19:53.356Z,19.27
2022-11-24T10:22:26.644Z,12.18
2022-11-24T10:25:06.562Z,25.38
2022-11-24T10:27:40.064Z,20.05
2022-11-24T10:30:15.039Z,14.32
2022-11-24T10:32:46.005Z,17.75
2022-11-24T10:35:23.247Z,13.57
2022-11-24T10:37:50.376Z,15.52
2022-11-24T10:40:57.325Z,10.23
2022-11-24T10:43:28.616Z,12.75
2022-11-24T10:45:56.796Z,10.23
2022-11-24T10:48:27.997Z,14.68
2022-11-24T10:50:58.206Z,20.25
2022-11-24T10:53:27.579Z,11.98
2022-11-24T10:55:57.504Z,10.55
2022-11-24T10:58:24.949Z,13.05
2022-11-24T11:00:52.090Z,12.45
2022-11-24T11:03:23.734Z,15.60
2022-11-24T11:05:53.959Z,13.25
2022-11-24T11:08:23.437Z,15.70
2022-11-24T11:10:51.713Z,12.63
2022-11-24T11:13:26.944Z,9.35
2022-11-24T11:15:54.683Z,13.35
2022-11-24T11:18:22.255Z,13.02
2022-11-24T11:20:51.218Z,10.80
2022-11-24T11:23:28.836Z,10.48
2022-11-24T11:26:14.828Z,8.35
2022-11-24T11:28:42.000Z,10.73
2022-11-24T11:31:21.839Z,10.15
2022-11-24T11:34:15.871Z,10.50
2022-11-24T11:36:49.999Z,9.55
2022-11-24T11:39:20.587Z,7.68
2022-11-24T11:41:48.832Z,5.57
2022-11-24T11:44:22.552Z,11.80
2022-11-24T11:46:49.805Z,9.77
2022-11-24T11:49:17.186Z,9.27
2022-11-24T11:52:00.306Z,9.73
2022-11-24T11:54:46.247Z,12.10
2022-11-24T11:57:26.699Z,12.73
2022-11-24T11:59:59.728Z,14.60
2022-11-24T12:02:51.576Z,11.73
2022-11-24T12:05:39.294Z,9.10
2022-11-24T12:08:10.314Z,8.70
2022-11-24T12:10:51.607Z,13.30
2022-11-24T12:13:37.337Z,11.00
2022-11-24T12:18:57.143Z,11.88
2022-11-24T12:21:44.199Z,11.63
2022-11-24T12:24:17.929Z,8.77
2022-11-24T12:26:48.832Z,9.27
2022-11-24T12:29:35.185Z,7.75
2022-11-24T12:32:21.364Z,10.32
2022-11-24T12:34:48.480Z,7.82
2022-11-24T12:37:26.675Z,11.43
2022-11-24T12:39:53.780Z,11.38
2022-11-24T12:42:23.702Z,9.40
2022-11-24T12:44:56.726Z,10.80
2022-11-24T12:47:42.817Z,10.00
2022-11-24T12:50:12.841Z,14.13
2022-11-24T12:52:57.180Z,6.93
2022-11-24T12:55:26.465Z,10.60
2022-11-24T12:58:00.187Z,7.65
2022-11-24T13:00:27.298Z,10.65
2022-11-24T13:03:13.318Z,6.70
2022-11-24T13:05:55.615Z,8.32
2022-11-24T13:08:23.164Z,9.65
2022-11-24T13:10:58.152Z,10.65
2022-11-24T13:13:28.470Z,10.48
2022-11-24T13:19:02.458Z,12.82
2022-11-24T13:21:50.122Z,14.18
2022-11-24T13:24:18.067Z,11.88
2022-11-24T13:26:48.531Z,14.30
2022-11-24T13:29:28.056Z,13.73
2022-11-24T13:31:56.370Z,16.95
2022-11-24T13:34:54.670Z,15.63
2022-11-24T13:37:33.895Z,9.55
2022-11-24T13:40:12.455Z,15.35
2022-11-24T13:42:57.877Z,13.45
2022-11-24T13:45:45.060Z,14.75
2022-11-24T13:48:22.567Z,16.17
2022-11-24T13:50:58.805Z,15.27
2022-11-24T13:53:42.483Z,15.50
2022-11-24T13:56:23.719Z,19.17
2022-11-24T13:58:58.716Z,15.32
2022-11-24T14:01:33.947Z,22.58
2022-11-24T14:07:02.511Z,16.48
2022-11-24T14:09:46.340Z,15.80
2022-11-24T14:12:13.564Z,17.40
2022-11-24T14:14:40.982Z,16.83
2022-11-24T14:17:08.106Z,18.75
2022-11-24T14:19:35.387Z,18.40
2022-11-24T14:22:02.612Z,13.43
2022-11-24T14:24:38.241Z,19.63
2022-11-24T14:27:14.381Z,17.15
2022-11-24T14:29:57.076Z,15.77
2022-11-24T14:32:24.527Z,14.90
2022-11-24T14:34:52.216Z,17.10
2022-11-24T14:37:20.164Z,19.70
2022-11-24T14:39:47.744Z,22.67
2022-11-24T14:42:25.058Z,23.63
2022-11-24T14:44:52.767Z,22.70
2022-11-24T14:47:19.947Z,18.55
2022-11-24T14:49:47.226Z,19.95
2022-11-24T14:52:15.999Z,22.77
2022-11-24T14:55:21.522Z,16.75
2022-11-24T14:57:48.889Z,18.83
2022-11-24T15:00:19.413Z,23.17
2022-11-24T15:02:48.346Z,19.92
2022-11-24T15:05:16.015Z,24.20
2022-11-24T15:07:44.901Z,22.23
2022-11-24T15:10:19.956Z,20.45
2022-11-24T15:12:55.277Z,21.25
2022-11-24T15:17:54.300Z,20.27
2022-11-24T15:20:25.674Z,19.42
2022-11-24T15:23:12.673Z,23.88
2022-11-24T15:25:39.868Z,18.05
2022-11-24T15:28:08.628Z,22.92
2022-11-24T15:30:36.706Z,20.88
2022-11-24T15:33:04.182Z,24.20
2022-11-24T15:35:32.627Z,22.02
2022-11-24T15:37:59.813Z,18.92
2022-11-24T15:40:26.981Z,24.23
2022-11-24T15:42:55.240Z,22.15
2022-11-24T15:45:23.882Z,32.83
2022-11-24T15:47:51.205Z,20.30
2022-11-24T15:50:18.600Z,23.98
2022-11-24T15:52:46.107Z,23.70
2022-11-24T15:55:22.905Z,28.80
2022-11-24T15:57:50.359Z,27.10
2022-11-24T16:00:18.482Z,18.77
2022-11-24T16:02:45.746Z,29.35
2022-11-24T16:05:13.562Z,26.92
2022-11-24T16:07:40.774Z,23.30
2022-11-24T16:10:09.024Z,28.92
2022-11-24T16:12:36.152Z,27.38
2022-11-24T16:15:03.386Z,27.20
2022-11-24T16:17:30.506Z,28.23
2022-11-24T16:20:00.801Z,19.63
2022-11-24T16:22:28.257Z,21.42
2022-11-24T16:24:55.422Z,21.55
2022-11-24T16:27:22.582Z,26.13
2022-11-24T16:29:49.704Z,29.42
2022-11-24T16:32:16.860Z,30.50
2022-11-24T16:34:43.983Z,30.77
2022-11-24T16:37:11.183Z,28.42
2022-11-24T16:39:38.322Z,43.35
2022-11-24T16:42:05.680Z,41.25
2022-11-24T16:44:34.497Z,35.65
2022-11-24T16:47:01.918Z,41.55
2022-11-24T16:49:29.073Z,32.72
2022-11-24T16:51:56.224Z,25.75
2022-11-24T16:54:23.480Z,28.88
2022-11-24T16:56:50.620Z,21.20
2022-11-24T16:59:18.050Z,24.98
2022-11-24T17:01:46.659Z,28.95
2022-11-24T17:04:13.969Z,27.30
2022-11-24T17:06:41.103Z,22.58
2022-11-24T17:09:09.110Z,26.42
2022-11-24T17:11:36.295Z,28.60
2022-11-24T17:14:03.443Z,27.90
2022-11-24T17:16:30.869Z,28.90
2022-11-24T17:18:58.886Z,25.00
2022-11-24T17:21:27.732Z,25.88
2022-11-24T17:23:55.844Z,23.52
2022-11-24T17:26:23.406Z,25.77
2022-11-24T17:28:50.520Z,25.38
2022-11-24T17:31:17.898Z,26.95
2022-11-24T17:33:45.083Z,21.80
2022-11-24T17:36:12.203Z,24.85
2022-11-24T17:38:39.374Z,30.58
2022-11-24T17:41:06.682Z,29.05
2022-11-24T17:43:34.006Z,31.80
2022-11-24T17:46:02.192Z,25.15
2022-11-24T17:48:29.601Z,32.50
2022-11-24T17:51:00.732Z,23.67
2022-11-24T17:53:28.267Z,28.83
2022-11-24T17:55:55.429Z,29.98
2022-11-24T17:58:22.589Z,33.42
2022-11-24T18:00:50.568Z,33.05
2022-11-24T18:03:17.770Z,29.85
2022-11-24T18:05:45.017Z,29.90
2022-11-24T18:08:12.213Z,38.17
2022-11-24T18:10:39.347Z,31.42
2022-11-24T18:13:06.657Z,35.42
2022-11-24T18:15:34.891Z,26.67
2022-11-24T18:18:02.494Z,30.65
2022-11-24T18:20:29.695Z,29.02
2022-11-24T18:23:05.450Z,29.42
2022-11-24T18:25:37.115Z,31.95
2022-11-24T18:28:04.312Z,32.35
2022-11-24T18:30:31.503Z,31.67
2022-11-24T18:32:59.067Z,21.75
2022-11-24T18:35:26.288Z,25.05
2022-11-24T18:37:54.130Z,33.42
2022-11-24T18:40:21.384Z,19.85
2022-11-24T18:42:48.519Z,31.60
2022-11-24T18:45:15.667Z,34.83
2022-11-24T18:47:42.850Z,26.15
2022-11-24T18:50:10.417Z,29.67
2022-11-24T18:52:37.583Z,26.63
2022-11-24T18:55:05.211Z,37.20
2022-11-24T18:57:32.512Z,40.42
2022-11-24T18:59:59.803Z,38.40
2022-11-24T19:02:27.091Z,26.55
2022-11-24T19:04:54.422Z,28.15
2022-11-24T19:07:21.620Z,30.67
2022-11-24T19:09:48.935Z,29.95
2022-11-24T19:12:16.126Z,37.70
2022-11-24T19:14:43.318Z,31.05
2022-11-24T19:17:10.538Z,32.65
2022-11-24T19:19:39.663Z,29.25
2022-11-24T19:22:06.937Z,37.42
2022-11-24T19:24:34.403Z,32.17
2022-11-24T19:27:01.832Z,20.42
2022-11-24T19:29:28.955Z,30.00
2022-11-24T19:31:56.254Z,32.60
2022-11-24T19:34:23.495Z,24.48
2022-11-24T19:36:50.634Z,26.45
2022-11-24T19:39:18.120Z,27.25
2022-11-24T19:41:45.354Z,21.90
2022-11-24T19:44:13.151Z,24.75
2022-11-24T19:46:40.754Z,35.30
2022-11-24T19:49:08.878Z,21.60
2022-11-24T19:51:39.948Z,30.77
2022-11-24T19:54:08.301Z,31.27
2022-11-24T19:56:36.701Z,34.42
2022-11-24T19:59:05.067Z,31.80
2022-11-24T20:01:40.107Z,32.45
2022-11-24T20:04:12.580Z,24.13
2022-11-24T20:06:41.028Z,26.20
2022-11-24T20:09:09.237Z,30.15
2022-11-24T20:11:36.782Z,28.45
2022-11-24T20:14:04.275Z,33.45
2022-11-24T20:16:32.764Z,32.70
2022-11-24T20:19:07.545Z,26.20
2022-11-24T20:21:35.668Z,26.10
2022-11-24T20:24:04.480Z,40.92
2022-11-24T20:26:33.288Z,27.48
2022-11-24T20:29:00.702Z,27.92
2022-11-24T20:31:36.629Z,32.25
2022-11-24T20:34:04.639Z,32.80
2022-11-24T20:36:32.472Z,28.15
2022-11-24T20:39:00.240Z,26.17
2022-11-24T20:41:28.800Z,31.58
2022-11-24T20:43:59.727Z,28.58
2022-11-24T20:46:28.211Z,33.90
2022-11-24T20:48:56.064Z,25.67
2022-11-24T20:51:30.373Z,29.83
2022-11-24T20:53:58.908Z,28.27
2022-11-24T20:56:30.451Z,32.80
2022-11-24T20:58:58.093Z,29.08
2022-11-24T21:01:26.958Z,34.35
2022-11-24T21:03:55.759Z,23.23
2022-11-24T21:06:23.503Z,31.98
2022-11-24T21:08:51.019Z,26.05
2022-11-24T21:11:19.105Z,32.63
2022-11-24T21:13:47.495Z,31.48
2022-11-24T21:16:15.811Z,27.08
2022-11-24T21:18:44.521Z,33.78
2022-11-24T21:21:11.908Z,26.30
2022-11-24T21:23:39.147Z,23.35
2022-11-24T21:26:11.536Z,35.30
2022-11-24T21:28:42.896Z,28.00
2022-11-24T21:31:12.379Z,36.60
2022-11-24T21:33:44.804Z,29.48
2022-11-24T21:36:12.560Z,23.35
2022-11-24T21:38:39.712Z,26.75
2022-11-24T21:41:08.291Z,25.77
2022-11-24T21:43:35.531Z,23.58
2022-11-24T21:46:03.631Z,28.38
2022-11-24T21:48:31.536Z,22.50
2022-11-24T21:50:59.436Z,24.83
2022-11-24T21:53:27.351Z,32.45
2022-11-24T21:55:58.357Z,23.30
2022-11-24T21:58:26.074Z,26.33
2022-11-24T22:00:53.322Z,28.95
2022-11-24T22:03:22.120Z,23.08
2022-11-24T22:05:59.252Z,30.02
2022-11-24T22:08:27.304Z,28.77
2022-11-24T22:10:54.667Z,27.27
2022-11-24T22:13:21.898Z,30.90
2022-11-24T22:15:49.016Z,27.55
2022-11-24T22:18:16.155Z,28.80
2022-11-24T22:20:43.419Z,27.45
2022-11-24T22:23:10.574Z,30.58
2022-11-24T22:25:37.698Z,29.58
2022-11-24T22:28:04.898Z,30.15
2022-11-24T22:30:32.026Z,26.23
2022-11-24T22:32:59.171Z,36.75
2022-11-24T22:35:26.364Z,25.70
2022-11-24T22:37:53.640Z,28.05
2022-11-24T22:40:20.806Z,29.27
2022-11-24T22:42:47.988Z,28.83
2022-11-24T22:45:15.188Z,30.65
2022-11-24T22:47:42.368Z,24.25
2022-11-24T22:50:09.658Z,30.70
2022-11-24T22:52:38.664Z,25.10
2022-11-24T22:55:05.924Z,26.13
2022-11-24T22:57:33.081Z,22.85
2022-11-24T23:00:00.199Z,29.17
2022-11-24T23:02:27.349Z,26.27
2022-11-24T23:04:54.484Z,31.23
2022-11-24T23:07:21.764Z,28.00
2022-11-24T23:09:48.915Z,28.60
2022-11-24T23:12:16.103Z,27.45
2022-11-24T23:14:43.248Z,24.88
2022-11-24T23:17:10.397Z,23.55
2022-11-24T23:19:37.568Z,27.00
2022-11-24T23:22:04.699Z,25.02
2022-11-24T23:24:31.968Z,25.92
2022-11-24T23:26:59.168Z,25.88
2022-11-24T23:29:26.313Z,28.08
2022-11-24T23:31:53.587Z,20.25
2022-11-24T23:34:20.819Z,19.45
2022-11-24T23:36:47.942Z,19.73
2022-11-24T23:39:15.273Z,24.10
2022-11-24T23:41:42.491Z,20.10
2022-11-24T23:44:09.663Z,24.75
2022-11-24T23:46:36.802Z,27.90
2022-11-24T23:49:04.210Z,25.55
2022-11-24T23:51:32.352Z,27.38
2022-11-24T23:54:00.282Z,25.17
2022-11-24T23:56:28.860Z,28.95
2022-11-24T23:58:56.133Z,24.75
